Time;durP1;ratioP1;P1;durP2;ratioP2;P2;SDS_P1;SDS_P2;PMS_P1;PMS_P2;Temp;Humidity;BMP_temperature;BMP_pressure;BME280_temperature;BME280_humidity;BME280_pressure;Samples;Min_cycle;Max_cycle;Signal;HPM_P1;HPM_P2
2022/09/30 00:01:33;;;;;;;3.17;2.03;;;7.00;99.90;;;;;;5093915;28;20051;-80
2022/09/30 00:03:59;;;;;;;3.38;1.90;;;7.00;99.90;;;;;;5113023;28;20086;-79
2022/09/30 00:06:27;;;;;;;3.08;2.20;;;6.90;99.90;;;;;;5112954;28;20096;-86
2022/09/30 00:08:53;;;;;;;4.38;2.55;;;6.90;99.90;;;;;;5094182;28;20048;-82
2022/09/30 00:11:24;;;;;;;6.30;2.35;;;7.00;99.90;;;;;;5112756;28;20047;-80
2022/09/30 00:13:52;;;;;;;3.13;2.20;;;7.00;99.90;;;;;;5112732;28;20402;-81
2022/09/30 00:16:20;;;;;;;3.13;2.33;;;6.90;99.90;;;;;;5112707;28;20122;-88
2022/09/30 00:18:48;;;;;;;4.13;2.47;;;6.90;99.90;;;;;;5112676;28;20529;-79
2022/09/30 00:21:15;;;;;;;2.53;1.85;;;6.90;99.90;;;;;;5112808;28;20122;-81
2022/09/30 00:23:42;;;;;;;3.65;2.17;;;6.90;99.90;;;;;;5112614;28;20043;-79
2022/09/30 00:26:12;;;;;;;3.45;2.25;;;6.80;99.90;;;;;;5112753;28;20039;-81
2022/09/30 00:28:39;;;;;;;10.70;2.20;;;6.80;99.90;;;;;;5093926;28;20052;-83
2022/09/30 00:31:08;;;;;;;3.70;2.60;;;6.80;99.90;;;;;;5112458;28;20056;-79
2022/09/30 00:33:34;;;;;;;3.53;2.42;;;6.70;99.90;;;;;;5112112;28;20040;-80
2022/09/30 00:36:01;;;;;;;4.63;2.42;;;6.70;99.90;;;;;;5094163;28;20047;-79
2022/09/30 00:38:27;;;;;;;14.57;3.30;;;6.80;99.90;;;;;;5112048;28;20047;-78
2022/09/30 00:40:53;;;;;;;3.55;2.67;;;6.70;99.90;;;;;;5111923;28;20683;-82
2022/09/30 00:43:38;;;;;;;4.68;2.42;;;6.70;99.90;;;;;;5112618;28;20053;-82
2022/09/30 00:46:05;;;;;;;4.97;3.33;;;6.70;99.90;;;;;;5112637;28;20429;-78
2022/09/30 00:48:34;;;;;;;10.27;2.63;;;6.60;99.90;;;;;;5112044;28;20050;-79
2022/09/30 00:51:03;;;;;;;18.05;2.88;;;6.60;99.90;;;;;;5093800;28;20394;-82
2022/09/30 00:53:30;;;;;;;13.93;2.30;;;6.60;99.90;;;;;;5112096;28;20054;-77
2022/09/30 00:55:58;;;;;;;4.90;2.30;;;6.50;99.90;;;;;;5111985;28;20044;-79
2022/09/30 00:58:34;;;;;;;61.15;3.60;;;6.50;99.90;;;;;;5092196;28;20086;-82
2022/09/30 01:01:00;;;;;;;2.90;2.10;;;6.50;99.90;;;;;;5111664;28;20078;-79
2022/09/30 01:03:32;;;;;;;4.28;2.17;;;6.40;99.90;;;;;;5111565;28;20042;-79
2022/09/30 01:05:58;;;;;;;4.00;2.30;;;6.40;99.90;;;;;;5111786;28;20043;-79
2022/09/30 01:08:26;;;;;;;2.38;1.60;;;6.40;99.90;;;;;;5112040;28;20051;-86
2022/09/30 01:10:52;;;;;;;1.50;1.00;;;6.40;99.90;;;;;;5093505;28;20047;-88
2022/09/30 01:13:19;;;;;;;3.40;1.55;;;6.30;99.90;;;;;;5111312;28;20546;-81
2022/09/30 01:16:07;;;;;;;1.60;1.30;;;6.30;99.90;;;;;;5111967;28;20371;-80
2022/09/30 01:18:49;;;;;;;2.60;1.60;;;6.30;99.90;;;;;;5093256;28;20142;-79
2022/09/30 01:21:36;;;;;;;2.65;1.40;;;6.20;99.90;;;;;;5112135;28;20040;-78
2022/09/30 01:24:30;;;;;;;3.42;1.42;;;6.20;99.90;;;;;;5110377;28;20039;-79
2022/09/30 01:27:30;;;;;;;2.25;1.60;;;6.20;99.90;;;;;;5112015;28;20047;-79
2022/09/30 01:30:05;;;;;;;6.35;1.75;;;6.10;99.90;;;;;;5106212;28;20058;-80
2022/09/30 01:33:25;;;;;;;2.85;1.73;;;6.10;99.90;;;;;;5093388;28;20067;-80
2022/09/30 01:36:23;;;;;;;4.70;1.90;;;6.10;99.90;;;;;;5009399;28;20491;-92
2022/09/30 01:39:06;;;;;;;24.20;3.10;;;6.00;99.90;;;;;;5009096;28;20046;-86
2022/09/30 01:42:05;;;;;;;3.58;2.50;;;6.10;99.90;;;;;;5008684;28;20136;-80
2022/09/30 01:44:48;;;;;;;3.47;2.45;;;6.00;99.90;;;;;;5008236;28;20679;-82
2022/09/30 01:47:42;;;;;;;4.57;2.40;;;6.10;99.90;;;;;;5008794;28;20042;-81
2022/09/30 01:50:10;;;;;;;5.30;2.17;;;6.00;99.90;;;;;;5007766;28;20058;-84
2022/09/30 01:52:43;;;;;;;4.55;2.63;;;6.00;99.90;;;;;;5008356;28;20069;-87
2022/09/30 01:55:15;;;;;;;4.00;2.08;;;6.00;99.90;;;;;;5008548;28;20050;-85
2022/09/30 01:57:40;;;;;;;3.80;2.00;;;6.00;99.90;;;;;;4992673;28;20204;-83
2022/09/30 02:00:08;;;;;;;3.05;2.20;;;5.90;99.90;;;;;;5008541;28;20132;-80
2022/09/30 02:02:58;;;;;;;6.93;2.10;;;5.90;99.90;;;;;;4997940;28;20042;-79
2022/09/30 02:05:35;;;;;;;3.25;2.10;;;5.90;99.90;;;;;;5009006;28;20081;-83
2022/09/30 02:08:06;;;;;;;12.73;2.60;;;5.90;99.90;;;;;;5009416;28;20045;-80
2022/09/30 02:10:36;;;;;;;10.10;2.60;;;5.90;99.90;;;;;;5079864;28;20048;-82
2022/09/30 02:13:16;;;;;;;18.48;2.50;;;5.80;99.90;;;;;;5111518;28;20067;-79
2022/09/30 02:15:46;;;;;;;54.38;3.70;;;5.80;99.90;;;;;;5111695;28;20048;-79
2022/09/30 02:18:31;;;;;;;20.10;3.00;;;5.80;99.90;;;;;;5111934;28;20119;-82
2022/09/30 02:21:03;;;;;;;8.48;2.72;;;5.70;99.90;;;;;;5109400;28;20089;-79
2022/09/30 02:23:39;;;;;;;30.17;2.80;;;5.70;99.90;;;;;;5092725;28;20093;-79
2022/09/30 02:26:15;;;;;;;3.22;2.30;;;5.70;99.90;;;;;;5111069;28;20043;-83
2022/09/30 02:28:46;;;;;;;3.28;2.30;;;5.70;99.90;;;;;;5092958;28;20094;-86
2022/09/30 02:31:14;;;;;;;3.70;2.70;;;5.70;99.90;;;;;;5111029;28;20867;-78
2022/09/30 02:33:48;;;;;;;5.30;2.47;;;5.70;99.90;;;;;;5110858;28;20040;-85
2022/09/30 02:36:27;;;;;;;6.70;1.90;;;5.80;99.90;;;;;;5110600;28;20136;-82
2022/09/30 02:39:01;;;;;;;13.77;2.75;;;5.80;99.90;;;;;;5092872;28;20063;-77
2022/09/30 02:41:31;;;;;;;13.20;2.47;;;5.70;99.90;;;;;;5110648;28;20051;-83
2022/09/30 02:43:59;;;;;;;29.30;3.13;;;5.60;99.90;;;;;;5111294;28;20047;-82
2022/09/30 02:46:46;;;;;;;2.50;1.80;;;5.60;99.90;;;;;;5093027;28;20544;-81
2022/09/30 02:49:31;;;;;;;25.25;2.63;;;5.50;99.90;;;;;;5102281;28;20126;-80
2022/09/30 02:52:08;;;;;;;7.07;1.90;;;5.50;99.90;;;;;;5110976;28;20047;-78
2022/09/30 02:54:51;;;;;;;2.20;1.45;;;5.50;99.90;;;;;;5092459;28;20039;-77
2022/09/30 02:57:26;;;;;;;3.33;2.17;;;5.40;99.90;;;;;;5111659;28;20047;-91
2022/09/30 02:59:52;;;;;;;3.33;2.50;;;5.40;99.90;;;;;;5111371;28;20124;-89
2022/09/30 03:02:19;;;;;;;8.35;2.30;;;5.40;99.90;;;;;;5093253;28;20051;-79
2022/09/30 03:04:47;;;;;;;3.35;2.42;;;5.50;99.90;;;;;;5111193;28;20051;-83
2022/09/30 03:07:13;;;;;;;5.68;2.60;;;5.50;99.90;;;;;;5093263;28;20420;-86
2022/09/30 03:09:39;;;;;;;8.93;3.50;;;5.60;99.90;;;;;;5110896;28;20371;-90
2022/09/30 03:12:40;;;;;;;11.90;3.75;;;5.60;99.90;;;;;;5110849;28;20081;-75
2022/09/30 03:15:59;;;;;;;13.07;5.15;;;5.60;99.90;;;;;;5008286;28;20537;-81
2022/09/30 03:18:48;;;;;;;10.57;4.18;;;5.60;99.90;;;;;;4970548;28;20047;-77
2022/09/30 03:21:32;;;;;;;15.75;5.30;;;5.60;99.90;;;;;;4894067;29;20140;-85
2022/09/30 03:24:21;;;;;;;11.40;5.10;;;5.60;99.90;;;;;;4879647;29;20060;-79
2022/09/30 03:27:08;;;;;;;7.40;5.10;;;5.60;99.90;;;;;;4896763;29;20060;-84
2022/09/30 03:30:02;;;;;;;8.43;4.07;;;5.70;99.90;;;;;;4899202;29;20064;-77
2022/09/30 03:32:40;;;;;;;11.00;4.20;;;5.60;99.90;;;;;;4915028;29;20083;-77
2022/09/30 03:35:26;;;;;;;9.55;4.32;;;5.60;99.90;;;;;;4915797;29;20045;-79
2022/09/30 03:38:26;;;;;;;5.30;3.63;;;5.60;99.90;;;;;;4915582;29;20432;-88
2022/09/30 03:41:15;;;;;;;4.65;3.38;;;5.60;99.90;;;;;;4915673;29;20048;-83
2022/09/30 03:43:52;;;;;;;4.40;3.20;;;5.70;99.90;;;;;;4915168;29;20044;-81
2022/09/30 03:46:23;;;;;;;9.75;4.40;;;5.70;99.90;;;;;;4914874;29;20116;-82
2022/09/30 03:48:54;;;;;;;5.00;3.55;;;5.70;99.90;;;;;;4915324;29;20068;-79
2022/09/30 03:51:20;;;;;;;7.30;3.53;;;5.70;99.90;;;;;;4934067;28;20058;-82
2022/09/30 03:53:47;;;;;;;6.25;3.10;;;5.70;99.90;;;;;;5012167;28;20488;-86
2022/09/30 03:56:13;;;;;;;12.85;3.45;;;5.70;99.90;;;;;;5011454;28;20046;-91
2022/09/30 03:58:43;;;;;;;9.73;3.00;;;5.70;99.90;;;;;;5064412;28;20048;-78
2022/09/30 04:01:17;;;;;;;7.50;2.95;;;5.70;99.90;;;;;;5094018;28;20052;-83
2022/09/30 04:03:43;;;;;;;5.20;3.00;;;5.70;99.90;;;;;;5058118;28;20055;-78
2022/09/30 04:06:12;;;;;;;7.97;3.60;;;5.60;99.90;;;;;;5071577;28;20056;-78
2022/09/30 04:08:38;;;;;;;8.00;4.20;;;5.80;99.90;;;;;;5073246;28;20051;-84
2022/09/30 04:11:04;;;;;;;10.55;3.78;;;5.70;99.90;;;;;;5090832;28;20039;-82
2022/09/30 04:13:30;;;;;;;8.95;4.25;;;5.70;99.90;;;;;;5074647;28;20058;-79
2022/09/30 04:15:56;;;;;;;9.05;4.43;;;5.70;99.90;;;;;;5092550;28;20040;-90
2022/09/30 04:18:21;;;;;;;12.93;5.10;;;5.70;99.90;;;;;;5092577;28;20055;-91
2022/09/30 04:20:47;;;;;;;56.78;5.47;;;5.80;99.90;;;;;;5092373;28;20056;-86
2022/09/30 04:23:13;;;;;;;51.80;5.78;;;5.70;99.90;;;;;;5092217;28;20044;-81
2022/09/30 04:25:38;;;;;;;41.72;5.22;;;5.70;99.90;;;;;;5092383;28;20044;-78
2022/09/30 04:28:04;;;;;;;20.60;4.75;;;5.70;99.90;;;;;;5091784;28;20047;-91
2022/09/30 04:30:29;;;;;;;37.78;4.80;;;5.70;99.90;;;;;;5093103;28;20058;-77
2022/09/30 04:32:55;;;;;;;14.48;4.22;;;5.70;99.90;;;;;;5112142;28;20122;-88
2022/09/30 04:35:21;;;;;;;5.85;3.47;;;5.70;99.90;;;;;;5110825;28;20086;-87
2022/09/30 04:37:47;;;;;;;7.40;3.03;;;5.70;99.90;;;;;;5112105;28;20044;-90
2022/09/30 04:40:14;;;;;;;15.52;3.03;;;5.60;99.90;;;;;;5112493;28;20062;-80
2022/09/30 04:42:41;;;;;;;7.55;2.95;;;5.60;99.90;;;;;;5112512;28;20119;-84
2022/09/30 04:45:11;;;;;;;3.30;2.55;;;5.60;99.90;;;;;;5112364;28;20102;-79
2022/09/30 04:47:37;;;;;;;5.63;2.47;;;5.50;99.90;;;;;;5112034;27;20044;-84
2022/09/30 04:50:04;;;;;;;5.68;2.97;;;5.50;99.90;;;;;;5111886;28;20092;-77
2022/09/30 04:52:29;;;;;;;4.43;2.60;;;5.50;99.90;;;;;;5111506;28;20051;-85
2022/09/30 04:54:55;;;;;;;2.85;2.13;;;5.50;99.90;;;;;;5111973;28;20044;-79
2022/09/30 04:57:21;;;;;;;4.50;2.33;;;5.60;99.90;;;;;;5112102;28;20079;-83
2022/09/30 04:59:47;;;;;;;3.33;2.58;;;5.60;99.90;;;;;;5111315;28;20519;-78
2022/09/30 05:02:13;;;;;;;5.63;2.17;;;5.60;99.90;;;;;;5111989;28;20065;-78
2022/09/30 05:04:39;;;;;;;6.82;3.15;;;5.50;99.90;;;;;;5111963;28;20075;-78
2022/09/30 05:07:07;;;;;;;4.85;3.58;;;5.50;99.90;;;;;;5111711;28;20146;-78
2022/09/30 05:09:36;;;;;;;5.20;3.50;;;5.50;99.90;;;;;;5111305;28;20055;-84
2022/09/30 05:12:02;;;;;;;5.97;3.78;;;5.50;99.90;;;;;;5111483;28;20050;-83
2022/09/30 05:14:28;;;;;;;10.70;3.05;;;5.50;99.90;;;;;;5111474;28;20504;-79
2022/09/30 05:16:54;;;;;;;4.20;2.42;;;5.40;99.90;;;;;;5111409;28;20107;-82
2022/09/30 05:19:20;;;;;;;5.00;2.47;;;5.40;99.90;;;;;;5112068;28;20126;-77
2022/09/30 05:21:46;;;;;;;3.85;2.50;;;5.30;99.90;;;;;;5111254;28;20088;-79
2022/09/30 05:24:12;;;;;;;5.40;2.33;;;5.30;99.90;;;;;;5111208;28;20132;-80
2022/09/30 05:26:39;;;;;;;3.80;1.75;;;5.20;99.90;;;;;;5111371;28;20065;-82
2022/09/30 05:29:08;;;;;;;3.97;2.42;;;5.20;99.90;;;;;;5111565;28;20043;-78
2022/09/30 05:31:34;;;;;;;4.45;2.72;;;5.10;99.90;;;;;;5110268;28;20513;-84
2022/09/30 05:34:00;;;;;;;7.72;3.25;;;5.10;99.90;;;;;;5111258;28;20094;-78
2022/09/30 05:36:25;;;;;;;4.82;3.05;;;5.10;99.90;;;;;;5110863;28;20104;-82
2022/09/30 05:38:52;;;;;;;6.10;2.85;;;5.10;99.90;;;;;;5111111;28;20051;-84
2022/09/30 05:41:20;;;;;;;5.63;2.67;;;5.00;99.90;;;;;;5093256;28;20035;-79
2022/09/30 05:43:47;;;;;;;7.40;2.78;;;5.00;99.90;;;;;;5110760;28;20492;-78
2022/09/30 05:46:14;;;;;;;6.05;2.55;;;4.90;99.90;;;;;;5092192;28;20073;-77
2022/09/30 05:48:39;;;;;;;3.78;2.50;;;4.90;99.90;;;;;;5092670;28;20079;-77
2022/09/30 05:51:06;;;;;;;44.38;4.38;;;4.90;99.90;;;;;;5111019;28;20483;-79
2022/09/30 05:53:33;;;;;;;8.48;3.13;;;4.90;99.90;;;;;;5110698;28;20075;-83
2022/09/30 05:55:59;;;;;;;4.32;3.03;;;4.80;99.90;;;;;;5110618;28;20067;-84
2022/09/30 05:58:26;;;;;;;5.72;3.42;;;4.80;99.90;;;;;;5110741;28;20509;-78
2022/09/30 06:00:51;;;;;;;5.93;3.10;;;4.80;99.90;;;;;;5108218;28;20048;-78
2022/09/30 06:03:18;;;;;;;9.73;3.03;;;4.80;99.90;;;;;;5092575;28;20054;-80
2022/09/30 06:05:44;;;;;;;4.18;2.80;;;4.90;99.90;;;;;;5110590;28;20049;-78
2022/09/30 06:08:11;;;;;;;7.35;3.28;;;4.90;99.90;;;;;;5111110;28;20157;-80
2022/09/30 06:10:40;;;;;;;6.13;2.70;;;4.90;99.90;;;;;;5111081;28;20062;-77
2022/09/30 06:13:06;;;;;;;4.15;2.72;;;4.90;99.90;;;;;;5092207;28;20051;-79
2022/09/30 06:15:31;;;;;;;4.18;2.92;;;4.90;99.90;;;;;;5110606;28;20051;-78
2022/09/30 06:17:58;;;;;;;4.68;3.45;;;4.90;99.90;;;;;;5110080;28;20040;-78
2022/09/30 06:20:24;;;;;;;5.80;3.40;;;4.90;99.90;;;;;;5110915;28;20398;-85
2022/09/30 06:22:49;;;;;;;4.97;3.60;;;4.90;99.90;;;;;;5110385;28;20035;-78
2022/09/30 06:25:15;;;;;;;4.95;2.88;;;5.00;99.90;;;;;;5092045;28;20054;-83
2022/09/30 06:27:45;;;;;;;6.38;3.67;;;5.00;99.90;;;;;;5110196;28;20054;-86
2022/09/30 06:30:11;;;;;;;4.20;2.97;;;5.00;99.90;;;;;;5110680;28;20091;-84
2022/09/30 06:32:37;;;;;;;4.95;2.90;;;5.00;99.90;;;;;;5110070;28;20056;-79
2022/09/30 06:35:03;;;;;;;5.20;3.30;;;5.00;99.90;;;;;;5109992;28;20084;-81
2022/09/30 06:37:28;;;;;;;9.07;4.05;;;5.10;99.90;;;;;;5110234;28;20108;-78
2022/09/30 06:39:54;;;;;;;7.18;5.60;;;5.20;99.90;;;;;;5092193;28;20441;-87
2022/09/30 06:42:22;;;;;;;11.57;6.82;;;5.50;99.90;;;;;;5110069;28;20071;-79
2022/09/30 06:44:47;;;;;;;10.52;6.45;;;5.40;99.90;;;;;;5110618;28;20046;-78
2022/09/30 06:47:13;;;;;;;7.45;5.60;;;5.50;99.90;;;;;;5092134;28;20052;-82
2022/09/30 06:49:41;;;;;;;9.95;6.82;;;5.50;99.90;;;;;;5092062;28;20046;-77
2022/09/30 06:52:08;;;;;;;10.15;7.10;;;5.70;99.90;;;;;;5109875;28;20484;-83
2022/09/30 06:54:34;;;;;;;10.35;7.43;;;5.80;99.90;;;;;;5110501;28;20063;-78
2022/09/30 06:57:00;;;;;;;10.77;7.20;;;5.90;99.90;;;;;;5095579;28;20051;-78
2022/09/30 06:59:26;;;;;;;11.60;8.10;;;5.90;99.90;;;;;;5112523;28;20124;-82
2022/09/30 07:01:52;;;;;;;10.57;8.13;;;6.00;99.90;;;;;;5114276;28;20486;-78
2022/09/30 07:04:18;;;;;;;9.25;6.95;;;6.00;99.90;;;;;;5113910;28;20044;-83
2022/09/30 07:06:44;;;;;;;10.30;6.88;;;6.10;99.90;;;;;;5095430;28;20047;-79
2022/09/30 07:09:11;;;;;;;12.52;8.10;;;6.20;99.90;;;;;;5089649;28;20097;-80
2022/09/30 07:11:37;;;;;;;13.25;7.63;;;6.30;99.90;;;;;;5107628;28;20047;-86
2022/09/30 07:14:04;;;;;;;11.10;7.22;;;6.30;99.90;;;;;;5095633;28;20056;-81
2022/09/30 07:16:30;;;;;;;12.55;8.00;;;6.50;99.90;;;;;;5113871;28;20044;-76
2022/09/30 07:18:58;;;;;;;12.02;8.30;;;6.60;99.90;;;;;;5113422;28;20036;-80
2022/09/30 07:21:24;;;;;;;17.63;10.15;;;6.70;99.90;;;;;;5113500;28;20047;-81
2022/09/30 07:23:52;;;;;;;21.17;11.38;;;6.80;99.90;;;;;;5113671;28;20050;-80
2022/09/30 07:26:19;;;;;;;14.27;9.55;;;6.90;99.90;;;;;;5112168;28;20048;-77
2022/09/30 07:28:45;;;;;;;19.95;11.15;;;7.00;99.90;;;;;;5113746;28;20047;-85
2022/09/30 07:31:22;;;;;;;18.50;10.10;;;7.10;99.90;;;;;;5113818;28;20051;-76
2022/09/30 07:33:51;;;;;;;13.40;9.20;;;7.30;99.90;;;;;;5113804;28;20093;-87
2022/09/30 07:36:20;;;;;;;15.57;10.82;;;7.30;99.90;;;;;;5112761;28;20040;-78
2022/09/30 07:38:50;;;;;;;18.20;10.88;;;7.50;99.90;;;;;;5113836;28;20502;-83
2022/09/30 07:41:20;;;;;;;18.67;10.90;;;7.40;99.90;;;;;;5113751;28;20079;-80
2022/09/30 07:43:47;;;;;;;21.73;12.50;;;7.70;99.90;;;;;;5113717;28;20039;-82
2022/09/30 07:46:19;;;;;;;19.02;12.63;;;7.80;99.90;;;;;;5095004;28;20044;-80
2022/09/30 07:48:47;;;;;;;18.58;12.20;;;7.90;99.90;;;;;;5113387;28;20089;-77
2022/09/30 07:51:20;;;;;;;20.77;12.88;;;8.00;99.90;;;;;;5113149;28;20410;-78
2022/09/30 07:53:52;;;;;;;18.42;11.77;;;8.10;99.90;;;;;;5113279;28;20043;-91
2022/09/30 07:56:18;;;;;;;19.52;12.00;;;8.20;99.90;;;;;;5094968;28;20405;-84
2022/09/30 07:58:44;;;;;;;15.27;11.32;;;8.30;99.90;;;;;;5112549;28;20047;-79
2022/09/30 08:01:10;;;;;;;19.60;11.55;;;8.30;99.90;;;;;;5113189;28;20040;-82
2022/09/30 08:03:39;;;;;;;14.52;9.73;;;8.40;99.90;;;;;;5112668;28;20031;-73
2022/09/30 08:06:11;;;;;;;12.80;9.82;;;8.90;99.90;;;;;;5112552;28;20063;-80
2022/09/30 08:08:38;;;;;;;12.52;9.20;;;8.30;99.90;;;;;;5092604;28;20073;-75
2022/09/30 08:11:05;;;;;;;12.30;8.57;;;8.70;99.90;;;;;;5112940;28;20493;-76
2022/09/30 08:13:31;;;;;;;13.77;9.68;;;8.70;99.90;;;;;;5094775;28;20130;-76
2022/09/30 08:15:56;;;;;;;16.63;10.35;;;8.80;99.90;;;;;;5094836;28;20127;-76
2022/09/30 08:18:22;;;;;;;15.82;10.70;;;9.10;99.90;;;;;;5094614;28;20070;-77
2022/09/30 08:20:48;;;;;;;16.30;11.23;;;9.00;99.90;;;;;;5113369;28;20050;-78
2022/09/30 08:23:14;;;;;;;34.17;11.40;;;9.10;99.90;;;;;;5112353;28;20101;-78
2022/09/30 08:25:39;;;;;;;95.45;12.95;;;9.20;99.90;;;;;;5112191;28;20127;-79
2022/09/30 08:28:05;;;;;;;63.25;13.70;;;9.30;99.90;;;;;;5093943;28;20083;-79
2022/09/30 08:30:33;;;;;;;23.00;12.10;;;9.40;99.90;;;;;;5112302;28;20094;-77
2022/09/30 08:32:59;;;;;;;52.50;15.18;;;9.50;99.90;;;;;;5112227;28;20047;-77
2022/09/30 08:35:25;;;;;;;59.53;14.30;;;9.60;99.90;;;;;;5111853;28;20050;-80
2022/09/30 08:37:50;;;;;;;56.92;12.85;;;9.70;99.90;;;;;;5111913;28;20047;-76
2022/09/30 08:40:20;;;;;;;46.10;12.57;;;9.80;99.90;;;;;;5112570;28;20047;-78
2022/09/30 08:43:13;;;;;;;30.70;12.57;;;9.90;99.90;;;;;;5112499;28;20039;-80
2022/09/30 08:46:40;;;;;;;83.43;12.15;;;9.90;99.90;;;;;;5111886;28;20044;-79
2022/09/30 08:49:43;;;;;;;25.20;10.75;;;10.00;99.90;;;;;;5004708;28;20547;-78
2022/09/30 08:52:21;;;;;;;13.52;9.45;;;10.20;99.90;;;;;;5008923;28;20088;-81
2022/09/30 08:54:51;;;;;;;27.00;11.00;;;10.40;99.90;;;;;;4991975;28;20096;-78
2022/09/30 08:57:18;;;;;;;21.92;9.77;;;10.50;99.90;;;;;;5008815;28;20046;-80
2022/09/30 08:59:48;;;;;;;16.40;9.52;;;10.60;99.90;;;;;;4992554;28;20058;-76
2022/09/30 09:02:30;;;;;;;15.07;9.68;;;10.70;99.90;;;;;;4992088;28;20046;-78
2022/09/30 09:05:02;;;;;;;15.65;9.90;;;10.70;99.90;;;;;;4991678;28;20134;-79
2022/09/30 09:07:50;;;;;;;13.18;9.75;;;11.20;99.90;;;;;;5008368;28;20160;-79
2022/09/30 09:10:53;;;;;;;13.73;9.38;;;11.00;99.90;;;;;;5007956;28;20153;-81
2022/09/30 09:13:40;;;;;;;12.20;9.48;;;11.30;99.90;;;;;;5008402;28;20434;-81
2022/09/30 09:16:17;;;;;;;11.48;8.40;;;11.60;99.90;;;;;;4991999;28;20055;-85
2022/09/30 09:18:54;;;;;;;10.05;8.27;;;11.60;99.90;;;;;;4990945;28;20076;-83
2022/09/30 09:21:22;;;;;;;12.25;8.95;;;11.70;99.90;;;;;;4975564;28;20058;-82
2022/09/30 09:23:50;;;;;;;12.07;8.70;;;12.30;99.90;;;;;;5106799;28;20067;-80
2022/09/30 09:26:16;;;;;;;11.13;8.88;;;12.50;99.90;;;;;;5092141;28;20539;-86
2022/09/30 09:29:13;;;;;;;10.48;8.35;;;12.60;99.90;;;;;;5110841;28;20031;-79
2022/09/30 09:31:39;;;;;;;10.32;8.27;;;12.30;99.90;;;;;;5090525;28;20055;-77
2022/09/30 09:34:12;;;;;;;10.00;8.23;;;12.50;99.90;;;;;;5072350;28;20113;-78
2022/09/30 09:36:50;;;;;;;9.63;7.85;;;12.70;99.90;;;;;;5090726;28;20051;-80
2022/09/30 09:39:36;;;;;;;9.65;7.95;;;12.70;99.90;;;;;;5090244;28;20058;-82
2022/09/30 09:42:37;;;;;;;8.93;7.28;;;12.90;99.90;;;;;;5072092;28;20059;-83
2022/09/30 09:45:28;;;;;;;10.80;7.80;;;13.10;99.90;;;;;;5090501;28;20048;-83
2022/09/30 09:48:00;;;;;;;9.30;7.80;;;13.40;99.90;;;;;;5043272;28;20048;-82
2022/09/30 09:50:48;;;;;;;8.70;7.47;;;13.50;99.90;;;;;;5090157;28;20066;-81
2022/09/30 09:53:44;;;;;;;9.45;8.07;;;13.70;99.90;;;;;;5055688;28;20079;-87
2022/09/30 09:59:16;;;;;;;10.75;8.77;;;14.20;99.90;;;;;;5091573;22;20102;-83
2022/09/30 10:01:48;;;;;;;9.73;8.55;;;14.40;99.90;;;;;;5052149;28;20148;-83
2022/09/30 10:04:32;;;;;;;11.23;8.38;;;14.50;99.90;;;;;;5080502;22;20094;-81
2022/09/30 10:06:59;;;;;;;11.80;8.85;;;14.70;99.90;;;;;;5016448;28;20080;-87
2022/09/30 10:09:27;;;;;;;9.95;8.15;;;15.00;99.90;;;;;;5033959;28;20385;-86
2022/09/30 10:12:05;;;;;;;11.90;8.55;;;14.90;99.90;;;;;;5050581;28;20088;-84
2022/09/30 10:14:52;;;;;;;12.38;8.90;;;15.40;99.90;;;;;;5050298;28;20139;-85
2022/09/30 10:17:18;;;;;;;13.00;7.88;;;15.20;99.90;;;;;;5031686;28;20132;-87
2022/09/30 10:19:53;;;;;;;8.35;6.70;;;15.40;99.90;;;;;;5014713;28;20128;-87
2022/09/30 10:22:29;;;;;;;10.77;7.57;;;15.70;99.90;;;;;;5031307;28;20579;-83
2022/09/30 10:25:23;;;;;;;10.07;6.78;;;15.90;99.90;;;;;;5049349;28;20059;-77
2022/09/30 10:28:00;;;;;;;7.65;5.30;;;16.10;99.90;;;;;;5049481;28;20044;-84
2022/09/30 10:30:37;;;;;;;5.35;4.13;;;16.30;99.90;;;;;;5043745;28;20045;-85
2022/09/30 10:33:10;;;;;;;5.65;4.20;;;16.50;99.90;;;;;;5011936;28;20495;-80
2022/09/30 10:35:53;;;;;;;8.40;3.88;;;16.50;99.90;;;;;;5029364;28;20053;-78
2022/09/30 10:38:19;;;;;;;8.20;3.75;;;16.50;99.90;;;;;;5049731;28;20403;-78
2022/09/30 10:40:52;;;;;;;7.22;3.22;;;16.70;99.90;;;;;;5049405;28;20075;-80
2022/09/30 10:43:26;;;;;;;4.63;3.50;;;16.60;99.90;;;;;;5046897;28;20532;-83
2022/09/30 10:45:52;;;;;;;5.00;3.13;;;16.80;99.90;;;;;;5049485;28;20049;-79
2022/09/30 10:48:22;;;;;;;5.78;2.85;;;16.90;99.90;;;;;;5049385;28;20045;-81
2022/09/30 10:50:52;;;;;;;7.65;3.13;;;16.90;99.90;;;;;;5049326;28;20056;-85
2022/09/30 10:53:29;;;;;;;3.63;2.70;;;17.00;99.90;;;;;;5049344;28;20059;-85
2022/09/30 10:55:56;;;;;;;5.72;3.08;;;17.10;99.90;;;;;;5031313;28;20044;-80
2022/09/30 10:58:28;;;;;;;4.07;2.67;;;17.30;99.90;;;;;;5048950;28;20102;-81
2022/09/30 11:01:20;;;;;;;4.25;2.53;;;17.20;99.90;;;;;;5048791;28;20045;-82
2022/09/30 11:04:01;;;;;;;4.50;2.80;;;17.00;99.90;;;;;;4987149;28;20501;-82
2022/09/30 11:06:31;;;;;;;5.55;2.70;;;17.00;99.90;;;;;;5003918;28;20058;-85
2022/09/30 11:09:18;;;;;;;6.00;2.65;;;17.30;99.90;;;;;;5006781;28;20090;-77
2022/09/30 11:11:55;;;;;;;4.88;2.50;;;17.10;99.90;;;;;;5006266;28;20119;-78
2022/09/30 11:14:43;;;;;;;3.75;2.80;;;17.20;99.90;;;;;;5005752;28;20053;-82
2022/09/30 11:17:32;;;;;;;4.40;2.30;;;17.30;99.90;;;;;;5006560;28;20050;-81
2022/09/30 11:20:06;;;;;;;4.25;2.30;;;17.50;99.90;;;;;;4974019;28;20093;-82
2022/09/30 11:23:02;;;;;;;4.10;2.08;;;17.50;99.90;;;;;;4986889;28;20500;-83
2022/09/30 11:25:59;;;;;;;2.90;2.03;;;17.50;99.90;;;;;;5000899;28;20046;-82
2022/09/30 11:29:15;;;;;;;3.03;1.75;;;17.50;99.90;;;;;;4986629;28;20544;-83
2022/09/30 11:31:50;;;;;;;;;;;17.60;99.90;;;;;;4945380;29;20062;-80
2022/09/30 11:34:58;;;;;;;3.53;1.80;;;17.60;99.90;;;;;;4948485;29;20345;-79
2022/09/30 11:37:49;;;;;;;4.28;1.95;;;17.70;99.90;;;;;;4909198;29;20055;-83
2022/09/30 11:40:20;;;;;;;4.13;2.05;;;17.80;99.90;;;;;;4898607;29;20500;-87
2022/09/30 11:43:04;;;;;;;3.85;1.92;;;18.30;99.90;;;;;;4911741;29;20052;-89
2022/09/30 11:45:47;;;;;;;5.20;1.95;;;17.80;99.90;;;;;;4897600;29;20063;-82
2022/09/30 11:48:24;;;;;;;3.08;1.88;;;17.80;99.90;;;;;;4906533;29;20575;-81
2022/09/30 11:51:34;;;;;;;3.42;2.00;;;17.90;99.90;;;;;;4913382;29;20056;-81
2022/09/30 11:54:22;;;;;;;6.18;1.75;;;17.90;99.90;;;;;;4893970;29;20065;-81
2022/09/30 11:57:18;;;;;;;2.33;1.50;;;17.90;99.90;;;;;;4894166;29;20096;-82
2022/09/30 12:00:16;;;;;;;4.95;1.70;;;17.90;99.90;;;;;;4878218;29;20076;-79
2022/09/30 12:02:47;;;;;;;1.90;1.10;;;18.10;99.90;;;;;;4875104;29;20088;-82
2022/09/30 12:05:37;;;;;;;2.42;1.10;;;18.30;99.90;;;;;;4880787;29;20192;-81
2022/09/30 12:08:13;;;;;;;2.75;1.15;;;18.20;99.90;;;;;;4889225;29;20052;-77
2022/09/30 12:10:52;;;;;;;4.78;1.20;;;18.10;99.90;;;;;;4897579;29;20064;-76
2022/09/30 12:13:25;;;;;;;2.92;1.58;;;17.80;99.90;;;;;;4897977;29;20856;-77
2022/09/30 12:15:55;;;;;;;4.07;1.80;;;17.80;99.90;;;;;;4951139;29;20078;-73
2022/09/30 12:18:35;;;;;;;3.13;1.60;;;17.80;99.90;;;;;;4950779;28;20047;-76
2022/09/30 12:21:11;;;;;;;3.67;1.48;;;17.80;99.90;;;;;;4961519;28;20102;-78
2022/09/30 12:23:48;;;;;;;5.18;1.38;;;17.70;99.90;;;;;;4950200;29;20090;-77
2022/09/30 12:26:15;;;;;;;2.80;1.63;;;17.80;99.90;;;;;;4951060;28;20054;-82
2022/09/30 12:32:21;;;;;;;2.70;1.50;;;18.00;99.90;;;;;;5029257;28;20050;-78
2022/09/30 12:34:53;;;;;;;3.00;1.37;;;17.70;99.90;;;;;;5028883;28;20148;-78
2022/09/30 12:37:43;;;;;;;4.07;1.50;;;17.50;99.90;;;;;;5028783;28;20128;-79
2022/09/30 12:40:16;;;;;;;2.65;1.27;;;17.40;99.90;;;;;;5028798;28;20500;-77
2022/09/30 12:42:57;;;;;;;3.10;1.60;;;17.20;99.90;;;;;;5028234;28;20049;-77
2022/09/30 12:45:44;;;;;;;3.45;1.30;;;17.30;99.90;;;;;;5028433;28;20601;-78
2022/09/30 12:48:14;;;;;;;5.90;1.40;;;17.50;99.90;;;;;;5011690;28;20635;-82
2022/09/30 12:50:48;;;;;;;3.85;1.40;;;17.70;99.90;;;;;;5010615;28;20049;-75
2022/09/30 12:53:22;;;;;;;4.43;1.20;;;17.70;99.90;;;;;;5028352;28;20053;-76
2022/09/30 12:55:49;;;;;;;2.60;1.30;;;17.70;99.90;;;;;;5011827;28;20092;-79
2022/09/30 12:58:42;;;;;;;2.95;1.60;;;17.50;99.90;;;;;;5028340;28;20520;-81
2022/09/30 13:01:26;;;;;;;2.70;1.50;;;17.60;99.90;;;;;;5028505;28;20140;-81
2022/09/30 13:04:17;;;;;;;3.30;1.50;;;17.90;99.90;;;;;;5028036;28;20049;-78
2022/09/30 13:06:45;;;;;;;2.17;1.40;;;17.90;99.90;;;;;;5027828;28;20049;-78
2022/09/30 13:09:17;;;;;;;3.10;1.67;;;17.70;99.90;;;;;;5050711;28;20056;-78
2022/09/30 13:12:11;;;;;;;2.72;1.48;;;17.70;99.90;;;;;;5050599;28;20674;-78
2022/09/30 13:14:43;;;;;;;3.08;1.70;;;17.60;99.90;;;;;;5050363;28;20052;-80
2022/09/30 13:17:09;;;;;;;3.90;1.67;;;17.70;99.90;;;;;;5050846;28;20047;-77
2022/09/30 13:19:44;;;;;;;3.17;1.75;;;17.70;99.90;;;;;;5050010;28;20052;-78
2022/09/30 13:22:38;;;;;;;3.20;1.75;;;18.00;99.90;;;;;;5050506;28;20049;-80
2022/09/30 13:25:16;;;;;;;5.65;2.00;;;17.80;99.90;;;;;;5016249;28;20518;-77
2022/09/30 13:27:44;;;;;;;3.20;1.65;;;17.80;99.90;;;;;;5032735;28;20380;-80
2022/09/30 13:30:15;;;;;;;3.05;1.98;;;17.90;99.90;;;;;;5032501;28;20048;-79
2022/09/30 13:33:05;;;;;;;3.45;1.90;;;18.00;99.90;;;;;;5050122;28;20113;-79